createdAt,value
2023-03-03T00:01:28.347Z,85.45
2023-03-03T00:03:56.384Z,85.50
2023-03-03T00:06:24.907Z,85.70
2023-03-03T00:08:52.778Z,85.26
2023-03-03T00:11:20.588Z,85.76
2023-03-03T00:13:50.231Z,85.73
2023-03-03T00:16:18.425Z,85.58
2023-03-03T00:18:48.015Z,85.61
2023-03-03T00:21:44.880Z,85.71
2023-03-03T00:24:21.914Z,86.00
2023-03-03T00:26:57.746Z,86.26
2023-03-03T00:29:35.924Z,85.96
2023-03-03T00:32:42.439Z,86.41
2023-03-03T00:35:35.590Z,86.56
2023-03-03T00:38:14.714Z,86.51
2023-03-03T00:40:42.679Z,86.36
2023-03-03T00:43:24.975Z,85.92
2023-03-03T00:45:53.967Z,86.20
2023-03-03T00:48:27.981Z,86.26
2023-03-03T00:50:58.138Z,85.78
2023-03-03T00:53:29.623Z,85.67
2023-03-03T00:55:58.107Z,85.36
2023-03-03T00:58:27.433Z,85.53
2023-03-03T01:00:56.782Z,85.28
2023-03-03T01:03:28.327Z,85.27
2023-03-03T01:05:56.101Z,85.22
2023-03-03T01:08:24.149Z,85.08
2023-03-03T01:10:54.682Z,84.97
2023-03-03T01:13:25.961Z,85.05
2023-03-03T01:15:54.241Z,84.95
2023-03-03T01:18:22.059Z,84.98
2023-03-03T01:20:49.771Z,84.84
2023-03-03T01:23:18.126Z,85.03
2023-03-03T01:25:45.791Z,84.91
2023-03-03T01:28:13.670Z,85.02
2023-03-03T01:30:41.412Z,84.97
2023-03-03T01:33:09.273Z,84.87
2023-03-03T01:35:37.081Z,84.94
2023-03-03T01:38:04.883Z,84.67
2023-03-03T01:40:33.055Z,84.77
2023-03-03T01:43:01.606Z,84.78
2023-03-03T01:45:57.368Z,84.94
2023-03-03T01:48:37.103Z,84.81
2023-03-03T01:51:15.810Z,85.19
2023-03-03T01:53:48.074Z,84.95
2023-03-03T01:56:16.730Z,84.75
2023-03-03T01:59:01.895Z,84.90
2023-03-03T02:01:31.600Z,84.97
2023-03-03T02:03:59.768Z,85.05
2023-03-03T02:06:35.387Z,84.85
2023-03-03T02:09:26.589Z,84.89
2023-03-03T02:12:01.237Z,84.70
2023-03-03T02:14:29.039Z,84.48
2023-03-03T02:16:57.375Z,84.67
2023-03-03T02:19:33.036Z,84.61
2023-03-03T02:22:05.109Z,84.70
2023-03-03T02:24:44.946Z,84.84
2023-03-03T02:27:14.141Z,84.82
2023-03-03T02:29:42.033Z,84.62
2023-03-03T02:32:10.245Z,84.70
2023-03-03T02:34:50.254Z,84.58
2023-03-03T02:37:19.727Z,84.73
2023-03-03T02:39:47.464Z,84.59
2023-03-03T02:42:23.882Z,84.55
2023-03-03T02:44:54.497Z,84.58
2023-03-03T02:47:22.537Z,84.66
2023-03-03T02:49:50.344Z,84.68
2023-03-03T02:52:19.176Z,84.92
2023-03-03T02:54:47.572Z,84.78
2023-03-03T02:57:15.468Z,84.72
2023-03-03T02:59:43.227Z,84.73
2023-03-03T03:02:13.547Z,84.53
2023-03-03T03:04:42.116Z,84.69
2023-03-03T03:07:11.868Z,84.73
2023-03-03T03:09:40.111Z,84.61
2023-03-03T03:12:08.703Z,84.82
2023-03-03T03:14:36.955Z,84.67
2023-03-03T03:17:05.597Z,84.92
2023-03-03T03:19:33.402Z,84.85
2023-03-03T03:22:02.516Z,85.27
2023-03-03T03:24:30.574Z,85.41
2023-03-03T03:27:02.295Z,85.74
2023-03-03T03:29:30.199Z,85.81
2023-03-03T03:31:58.008Z,85.71
2023-03-03T03:34:25.763Z,85.79
2023-03-03T03:36:54.202Z,85.54
2023-03-03T03:39:22.282Z,85.53
2023-03-03T03:41:50.974Z,85.51
2023-03-03T03:44:18.702Z,85.52
2023-03-03T03:46:46.441Z,85.60
2023-03-03T03:49:14.241Z,85.46
2023-03-03T03:51:42.375Z,85.27
2023-03-03T03:54:13.140Z,85.38
2023-03-03T03:56:41.083Z,85.47
2023-03-03T03:59:09.592Z,86.43
2023-03-03T04:01:38.007Z,86.54
2023-03-03T04:04:06.119Z,86.24
2023-03-03T04:06:34.560Z,86.19
2023-03-03T04:09:03.508Z,85.99
2023-03-03T04:11:31.790Z,85.73
2023-03-03T04:13:59.491Z,85.60
2023-03-03T04:16:27.501Z,85.42
2023-03-03T04:18:56.809Z,85.68
2023-03-03T04:21:25.908Z,85.85
2023-03-03T04:23:54.265Z,85.88
2023-03-03T04:26:22.260Z,85.89
2023-03-03T04:28:50.244Z,85.62
2023-03-03T04:31:20.601Z,85.30
2023-03-03T04:33:49.234Z,85.22
2023-03-03T04:36:17.970Z,85.26
2023-03-03T04:38:45.934Z,85.61
2023-03-03T04:41:14.384Z,85.56
2023-03-03T04:43:43.064Z,85.49
2023-03-03T04:46:12.305Z,85.40
2023-03-03T04:48:40.319Z,85.27
2023-03-03T04:51:08.293Z,85.34
2023-03-03T04:53:38.309Z,85.36
2023-03-03T04:56:06.748Z,85.30
2023-03-03T04:58:34.539Z,85.22
2023-03-03T05:01:02.394Z,85.06
2023-03-03T05:03:30.590Z,85.10
2023-03-03T05:05:58.410Z,85.35
2023-03-03T05:08:26.074Z,85.34
2023-03-03T05:10:54.709Z,85.41
2023-03-03T05:13:22.861Z,85.38
2023-03-03T05:15:57.199Z,85.63
2023-03-03T05:18:26.233Z,85.83
2023-03-03T05:20:54.217Z,85.79
2023-03-03T05:23:22.412Z,85.71
2023-03-03T05:25:50.564Z,85.66
2023-03-03T05:28:18.900Z,86.04
2023-03-03T05:30:47.035Z,85.92
2023-03-03T05:33:16.745Z,86.04
2023-03-03T05:35:45.277Z,85.95
2023-03-03T05:38:13.040Z,86.23
2023-03-03T05:40:40.823Z,86.35
2023-03-03T05:43:08.569Z,86.79
2023-03-03T05:45:36.370Z,87.15
2023-03-03T05:48:04.899Z,86.99
2023-03-03T05:50:33.419Z,87.07
2023-03-03T05:53:01.191Z,87.21
2023-03-03T05:55:28.866Z,87.26
2023-03-03T05:57:56.996Z,87.37
2023-03-03T06:00:24.769Z,87.70
2023-03-03T06:02:54.877Z,87.96
2023-03-03T06:05:22.785Z,87.92
2023-03-03T06:07:50.592Z,88.09
2023-03-03T06:10:18.418Z,88.32
2023-03-03T06:12:46.673Z,88.18
2023-03-03T06:15:14.526Z,88.03
2023-03-03T06:17:42.479Z,88.30
2023-03-03T06:20:11.109Z,88.28
2023-03-03T06:22:39.260Z,88.10
2023-03-03T06:25:07.267Z,88.17
2023-03-03T06:27:35.381Z,88.08
2023-03-03T06:30:04.158Z,88.09
2023-03-03T06:32:32.066Z,88.27
2023-03-03T06:34:59.763Z,88.26
2023-03-03T06:37:27.456Z,88.24
2023-03-03T06:39:55.462Z,88.17
2023-03-03T06:42:24.897Z,88.37
2023-03-03T06:44:52.636Z,88.24
2023-03-03T06:47:20.355Z,88.33
2023-03-03T06:49:48.118Z,88.27
2023-03-03T06:52:22.900Z,88.34
2023-03-03T06:54:55.224Z,88.41
2023-03-03T06:57:33.915Z,88.54
2023-03-03T07:00:14.272Z,88.68
2023-03-03T07:02:42.313Z,88.53
2023-03-03T07:05:15.457Z,88.55
2023-03-03T07:07:44.028Z,88.66
2023-03-03T07:10:28.499Z,88.81
2023-03-03T07:13:02.154Z,88.79
2023-03-03T07:15:36.121Z,88.79
2023-03-03T07:18:29.988Z,88.84
2023-03-03T07:20:57.677Z,88.83
2023-03-03T07:23:31.057Z,89.06
2023-03-03T07:25:58.734Z,89.15
2023-03-03T07:28:29.262Z,89.10
2023-03-03T07:30:58.273Z,89.01
2023-03-03T07:33:29.046Z,89.04
2023-03-03T07:35:59.291Z,89.06
2023-03-03T07:38:37.271Z,89.14
2023-03-03T07:41:17.318Z,89.33
2023-03-03T07:44:29.691Z,89.20
2023-03-03T07:46:57.405Z,89.11
2023-03-03T07:49:33.203Z,89.54
2023-03-03T07:52:01.567Z,89.33
2023-03-03T07:54:40.493Z,89.43
2023-03-03T07:57:14.280Z,89.49
2023-03-03T08:00:06.155Z,89.44
2023-03-03T08:02:47.111Z,89.59
2023-03-03T08:05:34.857Z,89.44
2023-03-03T08:08:23.729Z,89.27
2023-03-03T08:10:54.494Z,89.06
2023-03-03T08:13:35.504Z,89.53
2023-03-03T08:16:09.142Z,89.16
2023-03-03T08:18:38.628Z,89.24
2023-03-03T08:21:13.001Z,89.43
2023-03-03T08:23:41.187Z,89.09
2023-03-03T08:26:09.711Z,89.31
2023-03-03T08:28:37.422Z,89.07
2023-03-03T08:31:16.787Z,88.84
2023-03-03T08:33:47.851Z,88.96
2023-03-03T08:36:15.501Z,89.17
2023-03-03T08:38:43.235Z,89.07
2023-03-03T08:41:11.493Z,88.88
2023-03-03T08:43:39.872Z,88.90
2023-03-03T08:46:10.307Z,88.84
2023-03-03T08:48:38.262Z,89.10
2023-03-03T08:51:06.773Z,89.41
2023-03-03T08:53:36.602Z,88.93
2023-03-03T08:56:05.715Z,88.70
2023-03-03T08:58:35.906Z,88.67
2023-03-03T09:01:04.950Z,88.37
2023-03-03T09:03:33.076Z,88.35
2023-03-03T09:06:00.889Z,88.05
2023-03-03T09:08:28.681Z,88.47
2023-03-03T09:10:56.370Z,88.67
2023-03-03T09:13:24.092Z,88.16
2023-03-03T09:15:51.785Z,88.54
2023-03-03T11:41:58.185Z,91.87
2023-03-03T11:44:52.078Z,92.69
2023-03-03T11:47:39.458Z,93.05
2023-03-03T11:50:16.205Z,93.17
2023-03-03T11:53:05.817Z,93.00
2023-03-03T11:55:37.655Z,92.98
2023-03-03T11:58:14.340Z,92.77
2023-03-03T12:00:51.796Z,93.01
2023-03-03T12:03:35.856Z,92.94
2023-03-03T12:06:25.588Z,92.71
2023-03-03T12:09:12.028Z,92.39
2023-03-03T12:11:49.740Z,92.14
2023-03-03T12:14:37.403Z,92.24
2023-03-03T12:17:23.957Z,92.30
2023-03-03T12:20:03.809Z,92.14
2023-03-03T12:22:35.846Z,91.93
2023-03-03T12:25:21.961Z,91.98
2023-03-03T12:28:15.657Z,91.39
2023-03-03T12:31:07.705Z,91.30
2023-03-03T12:33:51.304Z,91.34
2023-03-03T12:36:30.932Z,91.28
2023-03-03T12:39:34.435Z,91.53
2023-03-03T12:42:41.213Z,91.24
2023-03-03T12:45:14.765Z,91.31
2023-03-03T12:47:51.670Z,91.51
2023-03-03T12:50:39.232Z,91.36
2023-03-03T12:53:27.154Z,91.23
2023-03-03T12:56:06.122Z,91.28
2023-03-03T12:58:56.865Z,91.17
2023-03-03T13:02:12.058Z,91.29
2023-03-03T13:04:56.750Z,91.38
2023-03-03T13:07:42.108Z,91.49
2023-03-03T13:10:12.720Z,91.66
2023-03-03T13:12:50.617Z,91.54
2023-03-03T13:16:06.509Z,91.60
2023-03-03T13:18:54.971Z,91.49
2023-03-03T13:21:33.074Z,91.32
2023-03-03T13:24:19.443Z,91.68
2023-03-03T13:26:56.520Z,91.51
2023-03-03T13:29:34.595Z,91.47
2023-03-03T13:32:12.421Z,91.42
2023-03-03T13:35:08.190Z,91.58
2023-03-03T13:37:42.121Z,91.49
2023-03-03T13:40:12.644Z,91.36
2023-03-03T13:42:59.564Z,91.50
2023-03-03T13:45:37.472Z,91.33
2023-03-03T13:48:14.305Z,91.46
2023-03-03T13:50:48.859Z,91.51
2023-03-03T13:53:46.677Z,91.53
2023-03-03T13:56:23.373Z,91.31
2023-03-03T13:58:59.659Z,91.18
2023-03-03T14:01:45.739Z,91.17
2023-03-03T14:04:53.029Z,91.23
2023-03-03T14:07:43.017Z,90.88
2023-03-03T14:10:18.306Z,90.71
2023-03-03T14:13:15.509Z,90.83
2023-03-03T14:15:56.846Z,90.58
2023-03-03T14:18:35.940Z,90.83
2023-03-03T14:21:11.157Z,90.91
2023-03-03T14:24:03.831Z,90.64
2023-03-03T14:26:31.637Z,90.62
2023-03-03T14:29:22.248Z,90.86
2023-03-03T14:31:50.052Z,90.96
2023-03-03T14:34:23.878Z,90.83
2023-03-03T14:36:57.358Z,90.79
2023-03-03T14:39:34.504Z,90.99
2023-03-03T14:42:12.713Z,90.91
2023-03-03T14:44:46.196Z,90.84
2023-03-03T14:47:22.610Z,90.57
2023-03-03T14:49:51.619Z,90.39
2023-03-03T14:52:23.838Z,90.52
2023-03-03T14:55:00.764Z,90.74
2023-03-03T14:57:41.602Z,90.85
2023-03-03T15:00:12.466Z,90.82
2023-03-03T15:02:45.922Z,90.88
2023-03-03T15:05:20.663Z,90.92
2023-03-03T15:07:53.207Z,90.98
2023-03-03T15:10:36.449Z,91.32
2023-03-03T15:13:29.350Z,91.12
2023-03-03T15:16:00.149Z,90.96
2023-03-03T15:18:34.377Z,90.88
2023-03-03T15:21:08.305Z,90.93
2023-03-03T15:24:01.609Z,90.71
2023-03-03T15:26:52.865Z,90.76
2023-03-03T15:29:37.382Z,90.59
2023-03-03T15:32:31.046Z,90.77
2023-03-03T15:35:20.248Z,90.61
2023-03-03T15:38:30.537Z,90.65
2023-03-03T15:41:23.211Z,90.84
2023-03-03T15:44:32.299Z,90.65
2023-03-03T15:47:19.423Z,90.70
2023-03-03T15:50:03.226Z,90.65
2023-03-03T15:52:39.927Z,90.62
2023-03-03T15:55:13.834Z,90.79
2023-03-03T15:57:57.608Z,90.67
2023-03-03T16:00:55.318Z,90.62
2023-03-03T16:03:36.441Z,90.63
2023-03-03T16:06:12.340Z,90.59
2023-03-03T16:08:53.401Z,90.68
2023-03-03T16:11:34.808Z,90.74
2023-03-03T16:14:08.661Z,90.61
2023-03-03T16:16:56.677Z,90.73
2023-03-03T16:19:47.638Z,90.70
2023-03-03T16:22:24.028Z,90.77
2023-03-03T16:25:06.425Z,90.66
2023-03-03T16:27:46.542Z,90.56
2023-03-03T16:30:27.063Z,90.56
2023-03-03T16:33:07.455Z,90.39
2023-03-03T16:35:46.738Z,90.37
2023-03-03T16:38:27.791Z,90.47
2023-03-03T16:40:58.987Z,90.19
2023-03-03T16:43:26.949Z,90.25
2023-03-03T16:46:04.232Z,90.15
2023-03-03T16:48:56.868Z,89.99
2023-03-03T16:51:39.625Z,90.05
2023-03-03T16:54:15.413Z,89.89
2023-03-03T16:56:49.081Z,89.87
2023-03-03T16:59:19.474Z,89.97
2023-03-03T17:01:56.226Z,90.01
2023-03-03T17:04:41.012Z,89.85
2023-03-03T17:07:17.858Z,89.72
2023-03-03T17:09:58.909Z,89.69
2023-03-03T17:12:43.228Z,89.65
2023-03-03T17:15:43.560Z,89.63
2023-03-03T17:18:38.659Z,89.74
2023-03-03T17:21:35.472Z,89.67
2023-03-03T17:24:13.557Z,89.57
2023-03-03T17:27:02.411Z,89.54
2023-03-03T17:30:03.061Z,89.53
2023-03-03T17:32:49.122Z,89.57
2023-03-03T17:35:55.711Z,89.48
2023-03-03T17:38:38.670Z,89.50
2023-03-03T17:41:23.468Z,89.45
2023-03-03T17:44:07.248Z,89.40
2023-03-03T17:46:55.078Z,89.35
2023-03-03T17:49:45.588Z,89.44
2023-03-03T17:52:39.963Z,89.44
2023-03-03T17:55:26.303Z,89.43
2023-03-03T17:58:12.815Z,89.28
2023-03-03T18:00:43.572Z,89.36
2023-03-03T18:03:45.105Z,89.11
2023-03-03T18:06:31.221Z,88.93
2023-03-03T18:09:14.101Z,88.74
2023-03-03T18:12:03.836Z,88.73
2023-03-03T18:15:09.127Z,88.72
2023-03-03T18:17:52.244Z,89.02
2023-03-03T18:20:44.839Z,88.79
2023-03-03T18:23:27.925Z,88.79
2023-03-03T18:25:58.624Z,88.72
2023-03-03T18:28:50.611Z,88.80
2023-03-03T18:31:23.665Z,88.93
2023-03-03T18:34:02.606Z,88.88
2023-03-03T18:36:31.938Z,88.70
2023-03-03T18:39:03.053Z,88.46
2023-03-03T18:41:32.759Z,88.52
2023-03-03T18:44:23.169Z,88.28
2023-03-03T18:46:53.146Z,88.12
2023-03-03T18:49:46.452Z,88.07
2023-03-03T18:52:25.025Z,88.05
2023-03-03T18:55:10.289Z,88.07
2023-03-03T18:57:38.699Z,87.98
2023-03-03T19:00:27.347Z,87.84
2023-03-03T19:02:58.790Z,87.96
2023-03-03T19:05:35.914Z,87.98
2023-03-03T19:08:19.352Z,87.80
2023-03-03T19:10:55.807Z,87.69
2023-03-03T19:13:32.422Z,87.76
2023-03-03T19:16:18.413Z,87.66
2023-03-03T19:18:46.107Z,87.47
2023-03-03T19:21:30.235Z,87.33
2023-03-03T19:24:04.389Z,87.34
2023-03-03T19:26:32.090Z,87.23
2023-03-03T19:29:18.520Z,87.30
2023-03-03T19:32:01.422Z,87.04
2023-03-03T19:34:53.085Z,87.17
2023-03-03T19:38:03.494Z,87.01
2023-03-03T19:40:46.542Z,86.99
2023-03-03T19:43:33.050Z,87.32
2023-03-03T19:46:30.150Z,87.11
2023-03-03T19:49:13.121Z,86.83
2023-03-03T19:51:51.904Z,86.76
2023-03-03T19:55:01.105Z,86.67
2023-03-03T19:57:42.611Z,86.72
2023-03-03T20:00:43.529Z,86.61
2023-03-03T20:03:50.905Z,86.81
2023-03-03T20:06:37.277Z,86.57
2023-03-03T20:09:14.688Z,86.62
2023-03-03T20:11:59.022Z,86.60
2023-03-03T20:14:50.088Z,86.53
2023-03-03T20:17:20.987Z,86.64
2023-03-03T20:20:00.852Z,86.57
2023-03-03T20:22:42.304Z,86.57
2023-03-03T20:25:35.645Z,86.30
2023-03-03T20:28:24.596Z,86.37
2023-03-03T20:31:11.476Z,86.07
2023-03-03T20:34:04.938Z,85.90
2023-03-03T20:36:48.951Z,86.00
2023-03-03T20:39:38.574Z,86.02
2023-03-03T20:42:22.366Z,85.88
2023-03-03T20:45:05.412Z,86.03
2023-03-03T20:47:35.839Z,85.97
2023-03-03T20:50:40.247Z,85.97
2023-03-03T20:53:46.776Z,85.70
2023-03-03T20:56:33.293Z,85.71
2023-03-03T20:59:27.867Z,85.88
2023-03-03T21:02:14.130Z,85.61
2023-03-03T21:04:42.168Z,85.85
2023-03-03T21:07:24.588Z,85.57
2023-03-03T21:10:11.250Z,85.82
2023-03-03T21:12:39.094Z,85.56
2023-03-03T21:15:31.568Z,85.62
2023-03-03T21:18:00.282Z,85.72
2023-03-03T21:20:33.949Z,85.69
2023-03-03T21:23:02.730Z,85.68
2023-03-03T21:25:54.038Z,85.36
2023-03-03T21:28:26.405Z,85.55
2023-03-03T21:31:09.096Z,85.63
2023-03-03T21:33:57.434Z,85.53
2023-03-03T21:36:44.721Z,85.49
2023-03-03T21:39:30.692Z,85.58
2023-03-03T21:42:07.358Z,85.77
2023-03-03T21:44:38.467Z,85.63
2023-03-03T21:47:12.199Z,85.54
2023-03-03T21:49:48.313Z,85.57
2023-03-03T21:52:18.584Z,85.62
2023-03-03T21:54:48.691Z,85.69
2023-03-03T21:57:16.875Z,85.54
2023-03-03T21:59:44.881Z,85.91
2023-03-03T22:02:12.892Z,85.51
2023-03-03T22:04:41.173Z,85.77
2023-03-03T22:07:10.176Z,85.54
2023-03-03T22:09:38.305Z,85.68
2023-03-03T22:12:09.431Z,85.72
2023-03-03T22:14:37.173Z,85.73
2023-03-03T22:17:04.953Z,85.41
2023-03-03T22:19:34.201Z,85.65
2023-03-03T22:22:01.898Z,85.64
2023-03-03T22:24:29.727Z,85.62
2023-03-03T22:26:57.395Z,85.63
2023-03-03T22:29:25.253Z,85.65
2023-03-03T22:31:53.066Z,85.77
2023-03-03T22:34:20.886Z,85.30
2023-03-03T22:36:48.544Z,85.65
2023-03-03T22:39:16.202Z,85.56
2023-03-03T22:41:43.870Z,85.75
2023-03-03T22:44:11.514Z,85.45
2023-03-03T22:46:39.257Z,85.38
2023-03-03T22:49:07.106Z,85.55
2023-03-03T22:51:34.752Z,85.15
2023-03-03T22:54:02.472Z,85.05
2023-03-03T22:56:30.149Z,85.16
2023-03-03T22:58:57.850Z,85.46
2023-03-03T23:01:25.586Z,85.43
2023-03-03T23:03:53.266Z,85.27
2023-03-03T23:06:20.927Z,85.24
2023-03-03T23:08:48.594Z,85.18
2023-03-03T23:11:16.342Z,85.13
2023-03-03T23:13:43.999Z,85.11
2023-03-03T23:16:11.810Z,85.17
2023-03-03T23:18:39.586Z,85.25
2023-03-03T23:21:07.306Z,85.42
2023-03-03T23:23:35.052Z,85.31
2023-03-03T23:26:03.075Z,85.02
2023-03-03T23:28:30.788Z,85.23
2023-03-03T23:30:58.674Z,85.20
2023-03-03T23:33:26.492Z,85.15
2023-03-03T23:35:55.206Z,85.24
2023-03-03T23:38:23.077Z,85.06
2023-03-03T23:40:51.079Z,85.13
2023-03-03T23:43:18.895Z,85.17
2023-03-03T23:45:48.835Z,85.14
2023-03-03T23:48:17.051Z,84.92
2023-03-03T23:50:44.936Z,85.09
2023-03-03T23:53:13.162Z,84.91
2023-03-03T23:55:41.518Z,85.05
2023-03-03T23:58:09.699Z,84.90
